< < Back
Terminal Aerodrome Forecast


Current Version              Previous Versions:   1  2  3  4  5  6  7  8  9  

Terminal Aerodrome Forecast

692
FTUS42 KTAE 302339
TAFTLH
TAF
KTLH 302339Z 0100/0124 16005KT P6SM SCT150 BKN200
     FM011000 00000KT 2SM BR SCT004
     FM011400 17008KT P6SM SCT030
     FM011900 19010KT P6SM SCT040=

Latest METAR

520
SAUS80 KWBC 011700 RRC
MTRTLH
METAR KTLH 011653Z 15011KT 10SM BKN034 BKN250 30/19 A3003 RMK AO2 SLP169
T03000189 $


USA.gov is the U.S. government's official web portal to all federal, state and local government web resources and services.